sensor_id;sensor_type;location;lat;lon;timestamp;temperature;humidity
50989;DHT22;37008;52.210;21.112;2023-01-19T00:00:00;2.10;99.90
50989;DHT22;37008;52.210;21.112;2023-01-19T00:02:26;2.20;99.90
50989;DHT22;37008;52.210;21.112;2023-01-19T00:04:51;2.20;99.90
50989;DHT22;37008;52.210;21.112;2023-01-19T00:07:17;2.20;99.90
50989;DHT22;37008;52.210;21.112;2023-01-19T00:09:43;2.20;99.90
50989;DHT22;37008;52.210;21.112;2023-01-19T00:12:09;2.20;99.90
50989;DHT22;37008;52.210;21.112;2023-01-19T00:14:35;2.20;99.90
50989;DHT22;37008;52.210;21.112;2023-01-19T00:17:00;2.10;99.90
50989;DHT22;37008;52.210;21.112;2023-01-19T00:19:27;2.20;99.90
50989;DHT22;37008;52.210;21.112;2023-01-19T00:21:53;2.20;99.90
50989;DHT22;37008;52.210;21.112;2023-01-19T00:24:18;2.20;99.90
50989;DHT22;37008;52.210;21.112;2023-01-19T00:26:44;2.20;99.90
50989;DHT22;37008;52.210;21.112;2023-01-19T00:29:11;2.20;99.90
50989;DHT22;37008;52.210;21.112;2023-01-19T00:31:37;2.20;99.90
50989;DHT22;37008;52.210;21.112;2023-01-19T00:34:04;2.20;99.90
50989;DHT22;37008;52.210;21.112;2023-01-19T00:36:29;2.20;99.90
50989;DHT22;37008;52.210;21.112;2023-01-19T00:38:55;2.20;99.90
50989;DHT22;37008;52.210;21.112;2023-01-19T00:41:21;2.20;99.90
50989;DHT22;37008;52.210;21.112;2023-01-19T00:44:07;2.20;99.90
50989;DHT22;37008;52.210;21.112;2023-01-19T00:46:32;2.30;99.90
50989;DHT22;37008;52.210;21.112;2023-01-19T00:48:58;2.20;99.90
50989;DHT22;37008;52.210;21.112;2023-01-19T00:51:24;2.30;99.90
50989;DHT22;37008;52.210;21.112;2023-01-19T00:53:50;2.30;99.90
50989;DHT22;37008;52.210;21.112;2023-01-19T00:56:16;2.20;99.90
50989;DHT22;37008;52.210;21.112;2023-01-19T00:58:42;2.20;99.90
50989;DHT22;37008;52.210;21.112;2023-01-19T01:01:09;2.20;99.90
50989;DHT22;37008;52.210;21.112;2023-01-19T01:03:35;2.20;99.90
50989;DHT22;37008;52.210;21.112;2023-01-19T01:06:00;2.20;99.90
50989;DHT22;37008;52.210;21.112;2023-01-19T01:08:31;2.20;99.90
50989;DHT22;37008;52.210;21.112;2023-01-19T01:10:56;2.10;99.90
50989;DHT22;37008;52.210;21.112;2023-01-19T01:13:24;2.10;99.90
50989;DHT22;37008;52.210;21.112;2023-01-19T01:15:51;2.10;99.90
50989;DHT22;37008;52.210;21.112;2023-01-19T01:18:18;2.10;99.90
50989;DHT22;37008;52.210;21.112;2023-01-19T01:20:44;2.00;99.90
50989;DHT22;37008;52.210;21.112;2023-01-19T01:23:09;1.90;99.90
50989;DHT22;37008;52.210;21.112;2023-01-19T01:25:35;2.00;99.90
50989;DHT22;37008;52.210;21.112;2023-01-19T01:28:05;1.90;99.90
50989;DHT22;37008;52.210;21.112;2023-01-19T01:30:34;1.90;99.90
50989;DHT22;37008;52.210;21.112;2023-01-19T01:33:00;1.80;99.90
50989;DHT22;37008;52.210;21.112;2023-01-19T01:35:26;1.80;99.90
50989;DHT22;37008;52.210;21.112;2023-01-19T01:37:57;1.80;99.90
50989;DHT22;37008;52.210;21.112;2023-01-19T01:40:22;1.80;99.90
50989;DHT22;37008;52.210;21.112;2023-01-19T01:42:48;1.80;99.90
50989;DHT22;37008;52.210;21.112;2023-01-19T01:47:49;1.90;99.90
50989;DHT22;37008;52.210;21.112;2023-01-19T01:50:24;1.80;99.90
50989;DHT22;37008;52.210;21.112;2023-01-19T01:55:21;1.90;99.90
50989;DHT22;37008;52.210;21.112;2023-01-19T01:57:52;1.90;99.90
50989;DHT22;37008;52.210;21.112;2023-01-19T02:00:18;1.90;99.90
50989;DHT22;37008;52.210;21.112;2023-01-19T02:02:44;2.00;99.90
50989;DHT22;37008;52.210;21.112;2023-01-19T02:07:53;2.10;99.90
50989;DHT22;37008;52.210;21.112;2023-01-19T02:10:40;2.00;99.90
50989;DHT22;37008;52.210;21.112;2023-01-19T02:13:27;2.00;99.90
50989;DHT22;37008;52.210;21.112;2023-01-19T02:15:58;2.00;99.90
50989;DHT22;37008;52.210;21.112;2023-01-19T02:18:29;2.00;99.90
50989;DHT22;37008;52.210;21.112;2023-01-19T02:21:25;2.00;99.90
50989;DHT22;37008;52.210;21.112;2023-01-19T02:23:56;1.90;99.90
50989;DHT22;37008;52.210;21.112;2023-01-19T02:26:40;2.00;99.90
50989;DHT22;37008;52.210;21.112;2023-01-19T02:29:09;2.00;99.90
50989;DHT22;37008;52.210;21.112;2023-01-19T02:31:37;2.00;99.90
50989;DHT22;37008;52.210;21.112;2023-01-19T02:34:05;2.00;99.90
50989;DHT22;37008;52.210;21.112;2023-01-19T02:36:36;2.00;99.90
50989;DHT22;37008;52.210;21.112;2023-01-19T02:39:04;2.00;99.90
50989;DHT22;37008;52.210;21.112;2023-01-19T02:41:33;2.00;99.90
50989;DHT22;37008;52.210;21.112;2023-01-19T02:44:02;2.00;99.90
50989;DHT22;37008;52.210;21.112;2023-01-19T02:46:28;2.00;99.90
50989;DHT22;37008;52.210;21.112;2023-01-19T02:48:58;2.00;99.90
50989;DHT22;37008;52.210;21.112;2023-01-19T02:51:24;2.00;99.90
50989;DHT22;37008;52.210;21.112;2023-01-19T03:02:25;2.00;99.90
50989;DHT22;37008;52.210;21.112;2023-01-19T03:15:55;2.10;99.90
50989;DHT22;37008;52.210;21.112;2023-01-19T03:18:25;2.10;99.90
50989;DHT22;37008;52.210;21.112;2023-01-19T03:20:54;2.10;99.90
50989;DHT22;37008;52.210;21.112;2023-01-19T03:23:23;2.10;99.90
50989;DHT22;37008;52.210;21.112;2023-01-19T03:25:51;2.10;99.90
50989;DHT22;37008;52.210;21.112;2023-01-19T03:28:20;2.10;99.90
50989;DHT22;37008;52.210;21.112;2023-01-19T03:30:59;2.20;99.90
50989;DHT22;37008;52.210;21.112;2023-01-19T03:33:30;2.10;99.90
50989;DHT22;37008;52.210;21.112;2023-01-19T03:36:01;2.20;99.90
50989;DHT22;37008;52.210;21.112;2023-01-19T03:38:32;2.20;99.90
50989;DHT22;37008;52.210;21.112;2023-01-19T03:41:02;2.20;99.90
50989;DHT22;37008;52.210;21.112;2023-01-19T03:43:29;2.20;99.90
50989;DHT22;37008;52.210;21.112;2023-01-19T03:45:56;2.30;99.90
50989;DHT22;37008;52.210;21.112;2023-01-19T03:48:23;2.20;99.90
50989;DHT22;37008;52.210;21.112;2023-01-19T03:50:50;2.20;99.90
50989;DHT22;37008;52.210;21.112;2023-01-19T03:53:16;2.20;99.90
50989;DHT22;37008;52.210;21.112;2023-01-19T03:55:45;2.20;99.90
50989;DHT22;37008;52.210;21.112;2023-01-19T03:58:12;2.20;99.90
50989;DHT22;37008;52.210;21.112;2023-01-19T04:00:38;2.20;99.90
50989;DHT22;37008;52.210;21.112;2023-01-19T04:03:04;2.20;99.90
50989;DHT22;37008;52.210;21.112;2023-01-19T04:05:31;2.20;99.90
50989;DHT22;37008;52.210;21.112;2023-01-19T04:07:56;2.30;99.90
50989;DHT22;37008;52.210;21.112;2023-01-19T04:10:22;2.30;99.90
50989;DHT22;37008;52.210;21.112;2023-01-19T04:12:48;2.30;99.90
50989;DHT22;37008;52.210;21.112;2023-01-19T04:15:14;2.30;99.90
50989;DHT22;37008;52.210;21.112;2023-01-19T04:17:40;2.30;99.90
50989;DHT22;37008;52.210;21.112;2023-01-19T04:20:06;2.30;99.90
50989;DHT22;37008;52.210;21.112;2023-01-19T04:22:32;2.30;99.90
50989;DHT22;37008;52.210;21.112;2023-01-19T04:24:58;2.30;99.90
50989;DHT22;37008;52.210;21.112;2023-01-19T04:27:24;2.30;99.90
50989;DHT22;37008;52.210;21.112;2023-01-19T04:29:50;2.30;99.90
50989;DHT22;37008;52.210;21.112;2023-01-19T04:32:16;2.30;99.90
50989;DHT22;37008;52.210;21.112;2023-01-19T04:34:42;2.30;99.90
50989;DHT22;37008;52.210;21.112;2023-01-19T04:37:10;2.30;99.90
50989;DHT22;37008;52.210;21.112;2023-01-19T04:39:39;2.30;99.90
50989;DHT22;37008;52.210;21.112;2023-01-19T04:42:05;2.30;99.90
50989;DHT22;37008;52.210;21.112;2023-01-19T04:44:31;2.30;99.90
50989;DHT22;37008;52.210;21.112;2023-01-19T04:46:56;2.30;99.90
50989;DHT22;37008;52.210;21.112;2023-01-19T04:49:22;2.30;99.90
50989;DHT22;37008;52.210;21.112;2023-01-19T04:51:48;2.30;99.90
50989;DHT22;37008;52.210;21.112;2023-01-19T04:54:13;2.30;99.90
50989;DHT22;37008;52.210;21.112;2023-01-19T04:56:39;2.30;99.90
50989;DHT22;37008;52.210;21.112;2023-01-19T04:59:05;2.30;99.90
50989;DHT22;37008;52.210;21.112;2023-01-19T05:01:31;2.30;99.90
50989;DHT22;37008;52.210;21.112;2023-01-19T05:04:00;2.30;99.90
50989;DHT22;37008;52.210;21.112;2023-01-19T05:06:28;2.30;99.90
50989;DHT22;37008;52.210;21.112;2023-01-19T05:08:53;2.30;99.90
50989;DHT22;37008;52.210;21.112;2023-01-19T05:11:19;2.30;99.90
50989;DHT22;37008;52.210;21.112;2023-01-19T05:13:44;2.30;99.90
50989;DHT22;37008;52.210;21.112;2023-01-19T05:16:10;2.30;99.90
50989;DHT22;37008;52.210;21.112;2023-01-19T05:18:36;2.30;99.90
50989;DHT22;37008;52.210;21.112;2023-01-19T05:21:02;2.30;99.90
50989;DHT22;37008;52.210;21.112;2023-01-19T05:23:28;2.30;99.90
50989;DHT22;37008;52.210;21.112;2023-01-19T05:25:56;2.30;99.90
50989;DHT22;37008;52.210;21.112;2023-01-19T05:28:21;2.30;99.90
50989;DHT22;37008;52.210;21.112;2023-01-19T05:30:50;2.30;99.90
50989;DHT22;37008;52.210;21.112;2023-01-19T05:33:16;2.30;99.90
50989;DHT22;37008;52.210;21.112;2023-01-19T05:35:41;2.30;99.90
50989;DHT22;37008;52.210;21.112;2023-01-19T05:38:07;2.20;99.90
50989;DHT22;37008;52.210;21.112;2023-01-19T05:40:32;2.30;99.90
50989;DHT22;37008;52.210;21.112;2023-01-19T05:42:58;2.30;99.90
50989;DHT22;37008;52.210;21.112;2023-01-19T05:45:26;2.30;99.90
50989;DHT22;37008;52.210;21.112;2023-01-19T05:47:53;2.30;99.90
50989;DHT22;37008;52.210;21.112;2023-01-19T05:50:19;2.30;99.90
50989;DHT22;37008;52.210;21.112;2023-01-19T05:52:45;2.30;99.90
50989;DHT22;37008;52.210;21.112;2023-01-19T05:55:10;2.30;99.90
50989;DHT22;37008;52.210;21.112;2023-01-19T05:57:36;2.30;99.90
50989;DHT22;37008;52.210;21.112;2023-01-19T06:00:03;2.30;99.90
50989;DHT22;37008;52.210;21.112;2023-01-19T06:02:29;2.30;99.90
50989;DHT22;37008;52.210;21.112;2023-01-19T06:04:55;2.30;99.90
50989;DHT22;37008;52.210;21.112;2023-01-19T06:07:21;2.30;99.90
50989;DHT22;37008;52.210;21.112;2023-01-19T06:09:47;2.30;99.90
50989;DHT22;37008;52.210;21.112;2023-01-19T06:12:12;2.30;99.90
50989;DHT22;37008;52.210;21.112;2023-01-19T06:14:38;2.30;99.90
50989;DHT22;37008;52.210;21.112;2023-01-19T06:17:05;2.30;99.90
50989;DHT22;37008;52.210;21.112;2023-01-19T06:19:32;2.30;99.90
50989;DHT22;37008;52.210;21.112;2023-01-19T06:21:58;2.30;99.90
50989;DHT22;37008;52.210;21.112;2023-01-19T06:24:24;2.30;99.90
50989;DHT22;37008;52.210;21.112;2023-01-19T06:26:50;2.30;99.90
50989;DHT22;37008;52.210;21.112;2023-01-19T06:29:16;2.30;99.90
50989;DHT22;37008;52.210;21.112;2023-01-19T06:31:42;2.30;99.90
50989;DHT22;37008;52.210;21.112;2023-01-19T06:34:08;2.30;99.90
50989;DHT22;37008;52.210;21.112;2023-01-19T06:36:34;2.30;99.90
50989;DHT22;37008;52.210;21.112;2023-01-19T06:39:00;2.30;99.90
50989;DHT22;37008;52.210;21.112;2023-01-19T06:41:29;2.30;99.90
50989;DHT22;37008;52.210;21.112;2023-01-19T06:43:55;2.30;99.90
50989;DHT22;37008;52.210;21.112;2023-01-19T06:46:21;2.30;99.90
50989;DHT22;37008;52.210;21.112;2023-01-19T06:48:46;2.30;99.90
50989;DHT22;37008;52.210;21.112;2023-01-19T06:51:12;2.30;99.90
50989;DHT22;37008;52.210;21.112;2023-01-19T06:53:38;2.30;99.90
50989;DHT22;37008;52.210;21.112;2023-01-19T06:56:03;2.30;99.90
50989;DHT22;37008;52.210;21.112;2023-01-19T06:58:30;2.30;99.90
50989;DHT22;37008;52.210;21.112;2023-01-19T07:01:00;2.30;99.90
50989;DHT22;37008;52.210;21.112;2023-01-19T07:03:26;2.30;99.90
50989;DHT22;37008;52.210;21.112;2023-01-19T07:05:52;2.30;99.90
50989;DHT22;37008;52.210;21.112;2023-01-19T07:08:18;2.30;99.90
50989;DHT22;37008;52.210;21.112;2023-01-19T07:10:44;2.30;99.90
50989;DHT22;37008;52.210;21.112;2023-01-19T07:13:09;2.30;99.90
50989;DHT22;37008;52.210;21.112;2023-01-19T07:15:35;2.30;99.90
50989;DHT22;37008;52.210;21.112;2023-01-19T07:18:02;2.30;99.90
50989;DHT22;37008;52.210;21.112;2023-01-19T07:20:36;2.30;99.90
50989;DHT22;37008;52.210;21.112;2023-01-19T07:23:02;2.30;99.90
50989;DHT22;37008;52.210;21.112;2023-01-19T07:25:28;2.40;99.90
50989;DHT22;37008;52.210;21.112;2023-01-19T07:27:58;2.40;99.90
50989;DHT22;37008;52.210;21.112;2023-01-19T07:30:24;2.40;99.90
50989;DHT22;37008;52.210;21.112;2023-01-19T07:32:49;2.40;99.90
50989;DHT22;37008;52.210;21.112;2023-01-19T07:35:15;2.50;99.90
50989;DHT22;37008;52.210;21.112;2023-01-19T07:37:40;2.50;99.90
50989;DHT22;37008;52.210;21.112;2023-01-19T07:40:07;2.50;99.90
50989;DHT22;37008;52.210;21.112;2023-01-19T07:42:33;2.50;99.90
50989;DHT22;37008;52.210;21.112;2023-01-19T07:44:58;2.50;99.90
50989;DHT22;37008;52.210;21.112;2023-01-19T07:47:24;2.50;99.90
50989;DHT22;37008;52.210;21.112;2023-01-19T07:49:49;2.50;99.90
50989;DHT22;37008;52.210;21.112;2023-01-19T07:52:15;2.60;99.90
50989;DHT22;37008;52.210;21.112;2023-01-19T07:54:41;2.60;99.90
50989;DHT22;37008;52.210;21.112;2023-01-19T07:57:06;2.60;99.90
50989;DHT22;37008;52.210;21.112;2023-01-19T07:59:32;2.60;99.90
50989;DHT22;37008;52.210;21.112;2023-01-19T08:01:58;2.60;99.90
50989;DHT22;37008;52.210;21.112;2023-01-19T08:04:25;2.60;99.90
50989;DHT22;37008;52.210;21.112;2023-01-19T08:06:51;2.70;99.90
50989;DHT22;37008;52.210;21.112;2023-01-19T08:09:17;2.60;99.90
50989;DHT22;37008;52.210;21.112;2023-01-19T08:11:42;2.70;99.90
50989;DHT22;37008;52.210;21.112;2023-01-19T08:14:08;2.70;99.90
50989;DHT22;37008;52.210;21.112;2023-01-19T08:16:35;2.70;99.90
50989;DHT22;37008;52.210;21.112;2023-01-19T08:19:01;2.70;99.90
50989;DHT22;37008;52.210;21.112;2023-01-19T08:21:27;2.70;99.90
50989;DHT22;37008;52.210;21.112;2023-01-19T08:23:53;2.70;99.90
50989;DHT22;37008;52.210;21.112;2023-01-19T08:26:25;2.80;99.90
50989;DHT22;37008;52.210;21.112;2023-01-19T08:28:56;2.80;99.90
50989;DHT22;37008;52.210;21.112;2023-01-19T08:31:22;2.80;99.90
50989;DHT22;37008;52.210;21.112;2023-01-19T08:33:48;2.80;99.90
50989;DHT22;37008;52.210;21.112;2023-01-19T08:36:14;2.80;99.90
50989;DHT22;37008;52.210;21.112;2023-01-19T08:38:40;2.80;99.90
50989;DHT22;37008;52.210;21.112;2023-01-19T08:41:09;2.80;99.90
50989;DHT22;37008;52.210;21.112;2023-01-19T08:43:35;2.80;99.90
50989;DHT22;37008;52.210;21.112;2023-01-19T08:46:00;2.80;99.90
50989;DHT22;37008;52.210;21.112;2023-01-19T08:48:28;2.80;99.90
50989;DHT22;37008;52.210;21.112;2023-01-19T08:50:53;2.80;99.90
50989;DHT22;37008;52.210;21.112;2023-01-19T08:53:19;2.80;99.90
50989;DHT22;37008;52.210;21.112;2023-01-19T08:55:48;2.80;99.90
50989;DHT22;37008;52.210;21.112;2023-01-19T08:58:13;2.90;99.90
50989;DHT22;37008;52.210;21.112;2023-01-19T09:00:39;2.90;99.90
50989;DHT22;37008;52.210;21.112;2023-01-19T09:03:06;2.80;99.90
50989;DHT22;37008;52.210;21.112;2023-01-19T09:05:34;2.90;99.90
50989;DHT22;37008;52.210;21.112;2023-01-19T09:08:04;2.80;99.90
50989;DHT22;37008;52.210;21.112;2023-01-19T09:10:30;2.80;99.90
50989;DHT22;37008;52.210;21.112;2023-01-19T09:13:03;2.90;99.90
50989;DHT22;37008;52.210;21.112;2023-01-19T09:15:30;2.80;99.90
50989;DHT22;37008;52.210;21.112;2023-01-19T09:18:11;2.90;99.90
50989;DHT22;37008;52.210;21.112;2023-01-19T09:20:45;2.90;99.90
50989;DHT22;37008;52.210;21.112;2023-01-19T09:23:13;2.90;99.90
50989;DHT22;37008;52.210;21.112;2023-01-19T09:25:40;2.90;99.90
50989;DHT22;37008;52.210;21.112;2023-01-19T09:28:08;2.90;99.90
50989;DHT22;37008;52.210;21.112;2023-01-19T09:30:35;2.90;99.90
50989;DHT22;37008;52.210;21.112;2023-01-19T09:33:13;2.90;99.90
50989;DHT22;37008;52.210;21.112;2023-01-19T09:35:40;2.90;99.90
50989;DHT22;37008;52.210;21.112;2023-01-19T09:38:07;2.90;99.90
50989;DHT22;37008;52.210;21.112;2023-01-19T09:40:46;2.90;99.90
50989;DHT22;37008;52.210;21.112;2023-01-19T09:46:14;2.90;99.90
50989;DHT22;37008;52.210;21.112;2023-01-19T09:48:47;2.90;99.90
50989;DHT22;37008;52.210;21.112;2023-01-19T09:51:17;2.90;99.90
50989;DHT22;37008;52.210;21.112;2023-01-19T09:56:17;2.90;99.90
50989;DHT22;37008;52.210;21.112;2023-01-19T09:58:44;2.90;99.90
50989;DHT22;37008;52.210;21.112;2023-01-19T10:01:19;2.90;99.90
50989;DHT22;37008;52.210;21.112;2023-01-19T10:03:48;2.90;99.90
50989;DHT22;37008;52.210;21.112;2023-01-19T10:06:16;2.90;99.90
50989;DHT22;37008;52.210;21.112;2023-01-19T10:08:58;2.90;99.90
50989;DHT22;37008;52.210;21.112;2023-01-19T10:11:35;2.90;99.90
50989;DHT22;37008;52.210;21.112;2023-01-19T10:14:04;2.90;99.90
50989;DHT22;37008;52.210;21.112;2023-01-19T10:16:54;2.90;99.90
50989;DHT22;37008;52.210;21.112;2023-01-19T10:19:32;2.80;99.90
50989;DHT22;37008;52.210;21.112;2023-01-19T10:22:11;2.90;99.90
50989;DHT22;37008;52.210;21.112;2023-01-19T10:24:41;2.90;99.90
50989;DHT22;37008;52.210;21.112;2023-01-19T10:27:16;2.90;99.90
50989;DHT22;37008;52.210;21.112;2023-01-19T10:29:49;2.90;99.90
50989;DHT22;37008;52.210;21.112;2023-01-19T10:32:25;2.90;99.90
50989;DHT22;37008;52.210;21.112;2023-01-19T10:34:52;3.00;99.90
50989;DHT22;37008;52.210;21.112;2023-01-19T10:37:43;3.00;99.90
50989;DHT22;37008;52.210;21.112;2023-01-19T10:40:38;3.10;99.90
50989;DHT22;37008;52.210;21.112;2023-01-19T10:46:05;3.20;99.90
50989;DHT22;37008;52.210;21.112;2023-01-19T10:48:40;3.20;99.90
50989;DHT22;37008;52.210;21.112;2023-01-19T10:51:07;3.20;99.90
50989;DHT22;37008;52.210;21.112;2023-01-19T10:53:36;3.20;99.90
50989;DHT22;37008;52.210;21.112;2023-01-19T10:56:24;3.30;99.90
50989;DHT22;37008;52.210;21.112;2023-01-19T10:58:51;3.30;99.90
50989;DHT22;37008;52.210;21.112;2023-01-19T11:01:25;3.30;99.90
50989;DHT22;37008;52.210;21.112;2023-01-19T11:03:52;3.30;99.90
50989;DHT22;37008;52.210;21.112;2023-01-19T11:06:27;3.30;99.90
50989;DHT22;37008;52.210;21.112;2023-01-19T11:09:09;3.20;99.90
50989;DHT22;37008;52.210;21.112;2023-01-19T11:12:04;3.20;99.90
50989;DHT22;37008;52.210;21.112;2023-01-19T11:14:30;3.30;99.90
50989;DHT22;37008;52.210;21.112;2023-01-19T11:16:57;3.30;99.90
50989;DHT22;37008;52.210;21.112;2023-01-19T11:19:29;3.20;99.90
50989;DHT22;37008;52.210;21.112;2023-01-19T11:22:29;3.20;99.90
50989;DHT22;37008;52.210;21.112;2023-01-19T11:25:00;3.20;99.90
50989;DHT22;37008;52.210;21.112;2023-01-19T11:27:27;3.20;99.90
50989;DHT22;37008;52.210;21.112;2023-01-19T11:30:01;3.20;99.90
50989;DHT22;37008;52.210;21.112;2023-01-19T11:32:30;3.20;99.90
50989;DHT22;37008;52.210;21.112;2023-01-19T11:34:58;3.20;99.90
50989;DHT22;37008;52.210;21.112;2023-01-19T11:37:28;3.20;99.90
50989;DHT22;37008;52.210;21.112;2023-01-19T11:39:57;3.30;99.90
50989;DHT22;37008;52.210;21.112;2023-01-19T11:42:23;3.30;99.90
50989;DHT22;37008;52.210;21.112;2023-01-19T11:45:13;3.30;99.90
50989;DHT22;37008;52.210;21.112;2023-01-19T11:47:47;3.30;99.90
50989;DHT22;37008;52.210;21.112;2023-01-19T11:50:38;3.30;99.90
50989;DHT22;37008;52.210;21.112;2023-01-19T11:53:13;3.30;99.90
50989;DHT22;37008;52.210;21.112;2023-01-19T11:58:21;3.40;99.90
50989;DHT22;37008;52.210;21.112;2023-01-19T12:01:03;3.30;99.90
50989;DHT22;37008;52.210;21.112;2023-01-19T12:03:50;3.40;99.90
50989;DHT22;37008;52.210;21.112;2023-01-19T12:06:20;3.40;99.90
50989;DHT22;37008;52.210;21.112;2023-01-19T12:11:31;3.40;99.90
50989;DHT22;37008;52.210;21.112;2023-01-19T12:14:01;3.30;99.90
50989;DHT22;37008;52.210;21.112;2023-01-19T12:16:29;3.40;99.90
50989;DHT22;37008;52.210;21.112;2023-01-19T12:19:10;3.40;99.90
50989;DHT22;37008;52.210;21.112;2023-01-19T12:21:38;3.30;99.90
50989;DHT22;37008;52.210;21.112;2023-01-19T12:24:15;3.40;99.90
50989;DHT22;37008;52.210;21.112;2023-01-19T12:26:58;3.40;99.90
50989;DHT22;37008;52.210;21.112;2023-01-19T12:29:28;3.40;99.90
50989;DHT22;37008;52.210;21.112;2023-01-19T12:34:46;3.40;99.90
50989;DHT22;37008;52.210;21.112;2023-01-19T12:37:30;3.40;99.90
50989;DHT22;37008;52.210;21.112;2023-01-19T12:40:37;3.40;99.90
50989;DHT22;37008;52.210;21.112;2023-01-19T12:43:13;3.40;99.90
50989;DHT22;37008;52.210;21.112;2023-01-19T12:45:40;3.40;99.90
50989;DHT22;37008;52.210;21.112;2023-01-19T12:48:22;3.40;99.90
50989;DHT22;37008;52.210;21.112;2023-01-19T12:50:49;3.30;99.90
50989;DHT22;37008;52.210;21.112;2023-01-19T12:53:18;3.30;99.90
50989;DHT22;37008;52.210;21.112;2023-01-19T12:55:56;3.30;99.90
50989;DHT22;37008;52.210;21.112;2023-01-19T12:58:23;3.30;99.90
50989;DHT22;37008;52.210;21.112;2023-01-19T13:01:16;3.30;99.90
50989;DHT22;37008;52.210;21.112;2023-01-19T13:04:05;3.30;99.90
50989;DHT22;37008;52.210;21.112;2023-01-19T13:09:31;3.30;99.90
50989;DHT22;37008;52.210;21.112;2023-01-19T13:14:39;3.20;99.90
50989;DHT22;37008;52.210;21.112;2023-01-19T13:17:45;3.10;99.90
50989;DHT22;37008;52.210;21.112;2023-01-19T13:20:23;3.10;99.90
50989;DHT22;37008;52.210;21.112;2023-01-19T13:22:50;3.10;99.90
50989;DHT22;37008;52.210;21.112;2023-01-19T13:25:27;3.10;99.90
50989;DHT22;37008;52.210;21.112;2023-01-19T13:27:53;3.10;99.90
50989;DHT22;37008;52.210;21.112;2023-01-19T13:30:22;3.10;99.90
50989;DHT22;37008;52.210;21.112;2023-01-19T13:32:49;3.10;99.90
50989;DHT22;37008;52.210;21.112;2023-01-19T13:35:18;3.10;99.90
50989;DHT22;37008;52.210;21.112;2023-01-19T13:37:44;3.10;99.90
50989;DHT22;37008;52.210;21.112;2023-01-19T13:40:23;3.10;99.90
50989;DHT22;37008;52.210;21.112;2023-01-19T13:42:51;3.10;99.90
50989;DHT22;37008;52.210;21.112;2023-01-19T13:45:53;3.10;99.90
50989;DHT22;37008;52.210;21.112;2023-01-19T13:48:25;3.10;99.90
50989;DHT22;37008;52.210;21.112;2023-01-19T13:51:05;3.10;99.90
50989;DHT22;37008;52.210;21.112;2023-01-19T13:53:37;3.10;99.90
50989;DHT22;37008;52.210;21.112;2023-01-19T13:58:37;3.00;99.90
50989;DHT22;37008;52.210;21.112;2023-01-19T14:01:23;3.00;99.90
50989;DHT22;37008;52.210;21.112;2023-01-19T14:03:50;2.90;99.90
50989;DHT22;37008;52.210;21.112;2023-01-19T14:06:30;2.90;99.90
50989;DHT22;37008;52.210;21.112;2023-01-19T14:09:28;2.90;99.90
50989;DHT22;37008;52.210;21.112;2023-01-19T14:14:32;2.90;99.90
50989;DHT22;37008;52.210;21.112;2023-01-19T14:16:58;2.90;99.90
50989;DHT22;37008;52.210;21.112;2023-01-19T14:19:24;2.90;99.90
50989;DHT22;37008;52.210;21.112;2023-01-19T14:22:01;2.90;99.90
50989;DHT22;37008;52.210;21.112;2023-01-19T14:24:28;2.90;99.90
50989;DHT22;37008;52.210;21.112;2023-01-19T14:27:22;2.90;99.90
50989;DHT22;37008;52.210;21.112;2023-01-19T14:29:49;2.90;99.90
50989;DHT22;37008;52.210;21.112;2023-01-19T14:32:23;2.80;99.90
50989;DHT22;37008;52.210;21.112;2023-01-19T14:37:37;2.80;99.90
50989;DHT22;37008;52.210;21.112;2023-01-19T14:42:47;2.80;99.90
50989;DHT22;37008;52.210;21.112;2023-01-19T14:48:21;2.80;99.90
50989;DHT22;37008;52.210;21.112;2023-01-19T14:50:48;2.80;99.90
50989;DHT22;37008;52.210;21.112;2023-01-19T14:53:37;2.80;99.90
50989;DHT22;37008;52.210;21.112;2023-01-19T14:56:04;2.80;99.90
50989;DHT22;37008;52.210;21.112;2023-01-19T14:58:32;2.80;99.90
50989;DHT22;37008;52.210;21.112;2023-01-19T15:00:59;2.80;99.90
50989;DHT22;37008;52.210;21.112;2023-01-19T15:03:26;2.80;99.90
50989;DHT22;37008;52.210;21.112;2023-01-19T15:05:56;2.80;99.90
50989;DHT22;37008;52.210;21.112;2023-01-19T15:08:28;2.70;99.90
50989;DHT22;37008;52.210;21.112;2023-01-19T15:10:55;2.80;99.90
50989;DHT22;37008;52.210;21.112;2023-01-19T15:13:24;2.80;99.90
50989;DHT22;37008;52.210;21.112;2023-01-19T15:15:53;2.80;99.90
50989;DHT22;37008;52.210;21.112;2023-01-19T15:18:22;2.80;99.90
50989;DHT22;37008;52.210;21.112;2023-01-19T15:20:49;2.80;99.90
50989;DHT22;37008;52.210;21.112;2023-01-19T15:23:14;2.70;99.90
50989;DHT22;37008;52.210;21.112;2023-01-19T15:25:40;2.80;99.90
50989;DHT22;37008;52.210;21.112;2023-01-19T15:28:11;2.70;99.90
50989;DHT22;37008;52.210;21.112;2023-01-19T15:30:37;2.70;99.90
50989;DHT22;37008;52.210;21.112;2023-01-19T15:33:03;2.70;99.90
50989;DHT22;37008;52.210;21.112;2023-01-19T15:35:29;2.70;99.90
50989;DHT22;37008;52.210;21.112;2023-01-19T15:37:55;2.70;99.90
50989;DHT22;37008;52.210;21.112;2023-01-19T15:40:21;2.70;99.90
50989;DHT22;37008;52.210;21.112;2023-01-19T15:42:48;2.70;99.90
50989;DHT22;37008;52.210;21.112;2023-01-19T15:45:35;2.70;99.90
50989;DHT22;37008;52.210;21.112;2023-01-19T15:48:06;2.70;99.90
50989;DHT22;37008;52.210;21.112;2023-01-19T15:50:38;2.70;99.90
50989;DHT22;37008;52.210;21.112;2023-01-19T15:53:06;2.70;99.90
50989;DHT22;37008;52.210;21.112;2023-01-19T15:55:32;2.70;99.90
50989;DHT22;37008;52.210;21.112;2023-01-19T15:57:58;2.70;99.90
50989;DHT22;37008;52.210;21.112;2023-01-19T16:00:31;2.70;99.90
50989;DHT22;37008;52.210;21.112;2023-01-19T16:02:58;2.60;99.90
50989;DHT22;37008;52.210;21.112;2023-01-19T16:05:24;2.70;99.90
50989;DHT22;37008;52.210;21.112;2023-01-19T16:07:50;2.70;99.90
50989;DHT22;37008;52.210;21.112;2023-01-19T16:10:16;2.60;99.90
50989;DHT22;37008;52.210;21.112;2023-01-19T16:12:43;2.60;99.90
50989;DHT22;37008;52.210;21.112;2023-01-19T16:15:10;2.60;99.90
50989;DHT22;37008;52.210;21.112;2023-01-19T16:17:36;2.60;99.90
50989;DHT22;37008;52.210;21.112;2023-01-19T16:20:03;2.60;99.90
50989;DHT22;37008;52.210;21.112;2023-01-19T16:22:32;2.60;99.90
50989;DHT22;37008;52.210;21.112;2023-01-19T16:24:59;2.60;99.90
50989;DHT22;37008;52.210;21.112;2023-01-19T16:27:25;2.50;99.90
50989;DHT22;37008;52.210;21.112;2023-01-19T16:29:54;2.50;99.90
50989;DHT22;37008;52.210;21.112;2023-01-19T16:32:21;2.50;99.90
50989;DHT22;37008;52.210;21.112;2023-01-19T16:34:47;2.50;99.90
50989;DHT22;37008;52.210;21.112;2023-01-19T16:37:13;2.40;99.90
50989;DHT22;37008;52.210;21.112;2023-01-19T16:39:38;2.40;99.90
50989;DHT22;37008;52.210;21.112;2023-01-19T16:42:04;2.40;99.90
50989;DHT22;37008;52.210;21.112;2023-01-19T16:44:30;2.30;99.90
50989;DHT22;37008;52.210;21.112;2023-01-19T16:46:55;2.30;99.90